PWSweather.com
Personal Weather Stations
Station Observations
SWHWX01
St AppolinardFR 38160

St AppolinardFR 38160

Lat: 45.191, Lon: 5.268

Elevation: 1460

Station Type: Davis Vantage Pro2 Plus

Latest ConditionsUpdated 11:30:06 PM GMT+01:01 Thursday, Dec 14, 2017
Currently Today's Max Today's Min Today's Average
Temperature 48.4°F9.1°C 49.4°F9.7°C 40.4°F4.7°C 44.7°F7.1°C
Dew Point 39.8°F4.3°C 44.6°F7.0°C 37.3°F2.9°C 39.9°F4.4°C
Winds 9.3 mph SW15.0 kmh SW 10.9 mph SSW17.5 kmh SSW - 5.6 mph 9.0 kmh
Wind Gusts 10.0 mph16.1 kmh 18.0 mph29.0 kmh - -
Humidity 72% 95% 63% 84%
Pressure 29.63 in1003.4 mb 29.93 in1013.5 mb 29.63 in1003.4 mb -
Precipitation - 0.01 in0.3 mm - -
Hour Temp Dew Point Humidity Winds Wind Gusts Pressure Precip Precip Rate Daily Precip Total
11:30 PM 48.4°F9.1°C 39.8°F4.3°C 72% 9.3 mph SW15.0 kmh SW 10.0 mph16.1 kmh 29.63 in1003.4 mb - 0.00 in0.0 mm 0.01 in0.3 mm
11:00 PM 49.1°F9.5°C 38.3°F3.5°C 66% 6.7 mph SW10.8 kmh SW 11.0 mph17.7 kmh 29.64 in1003.7 mb - 0.00 in0.0 mm 0.01 in0.3 mm
10:30 PM 49.1°F9.5°C 37.8°F3.2°C 65% 10.7 mph WSW17.2 kmh WSW 14.0 mph22.5 kmh 29.64 in1003.7 mb - 0.00 in0.0 mm 0.01 in0.3 mm
10:00 PM 49.0°F9.4°C 37.3°F2.9°C 64% 7.8 mph S12.6 kmh S 13.0 mph20.9 kmh 29.64 in1003.7 mb - 0.00 in0.0 mm 0.01 in0.3 mm
09:30 PM 49.4°F9.7°C 37.3°F2.9°C 63% 10.8 mph SSW17.4 kmh SSW 15.0 mph24.1 kmh 29.66 in1004.4 mb - 0.00 in0.0 mm 0.01 in0.3 mm
09:00 PM 48.7°F9.3°C 37.8°F3.2°C 66% 6.6 mph SW10.6 kmh SW 9.0 mph14.5 kmh 29.68 in1005.1 mb - 0.00 in0.0 mm 0.01 in0.3 mm
08:30 PM 49.0°F9.4°C 38.2°F3.4°C 66% 8.4 mph SW13.5 kmh SW 13.0 mph20.9 kmh 29.69 in1005.4 mb - 0.00 in0.0 mm 0.01 in0.3 mm
08:00 PM 49.1°F9.5°C 39.4°F4.1°C 69% 10.9 mph SSW17.5 kmh SSW 18.0 mph29.0 kmh 29.69 in1005.4 mb - 0.00 in0.0 mm 0.01 in0.3 mm
07:30 PM 49.0°F9.4°C 40.0°F4.4°C 71% 10.4 mph SW16.7 kmh SW 17.0 mph27.4 kmh 29.70 in1005.8 mb - 0.00 in0.0 mm 0.01 in0.3 mm
07:00 PM 47.3°F8.5°C 40.4°F4.7°C 77% 6.8 mph SSW10.9 kmh SSW 9.0 mph14.5 kmh 29.71 in1006.1 mb - 0.01 in0.3 mm 0.01 in0.3 mm
06:30 PM 45.7°F7.6°C 39.2°F4.0°C 78% 5.9 mph SW9.5 kmh SW 8.0 mph12.9 kmh 29.70 in1005.8 mb - 0.00 in0.0 mm 0.00 in0.0 mm
06:00 PM 46.7°F8.2°C 38.8°F3.8°C 74% 4.4 mph SW7.1 kmh SW 6.0 mph9.7 kmh 29.72 in1006.4 mb - 0.00 in0.0 mm 0.00 in0.0 mm
05:30 PM 47.7°F8.7°C 37.7°F3.2°C 68% 3.0 mph S4.8 kmh S 5.0 mph8.0 kmh 29.71 in1006.1 mb - 0.00 in0.0 mm 0.00 in0.0 mm
05:00 PM 48.6°F9.2°C 38.1°F3.4°C 67% 4.1 mph S6.6 kmh S 5.0 mph8.0 kmh 29.73 in1006.8 mb - 0.00 in0.0 mm 0.00 in0.0 mm
04:30 PM 49.4°F9.7°C 39.7°F4.3°C 69% 2.5 mph SSW4.0 kmh SSW 4.0 mph6.4 kmh 29.74 in1007.1 mb - 0.00 in0.0 mm 0.00 in0.0 mm
04:00 PM 48.3°F9.1°C 40.8°F4.9°C 75% 5.8 mph S9.3 kmh S 11.0 mph17.7 kmh 29.75 in1007.5 mb - 0.00 in0.0 mm 0.00 in0.0 mm
03:30 PM 46.9°F8.3°C 43.2°F6.2°C 87% 5.0 mph SW8.0 kmh SW 11.0 mph17.7 kmh 29.77 in1008.1 mb - 0.00 in0.0 mm 0.00 in0.0 mm
03:00 PM 46.4°F8.0°C 43.6°F6.4°C 90% 5.7 mph SW9.2 kmh SW 8.0 mph12.9 kmh 29.78 in1008.5 mb - 0.00 in0.0 mm 0.00 in0.0 mm
02:30 PM 46.8°F8.2°C 44.3°F6.8°C 91% 2.2 mph SW3.5 kmh SW 4.0 mph6.4 kmh 29.78 in1008.5 mb - 0.00 in0.0 mm 0.00 in0.0 mm
02:00 PM 47.0°F8.3°C 44.5°F6.9°C 91% 3.6 mph S5.8 kmh S 8.0 mph12.9 kmh 29.80 in1009.1 mb - 0.00 in0.0 mm 0.00 in0.0 mm
01:30 PM 46.8°F8.2°C 44.6°F7.0°C 92% 3.5 mph S5.6 kmh S 4.0 mph6.4 kmh 29.82 in1009.8 mb - 0.00 in0.0 mm 0.00 in0.0 mm
01:00 PM 46.3°F7.9°C 44.1°F6.7°C 92% 4.2 mph SW6.8 kmh SW 5.0 mph8.0 kmh 29.84 in1010.5 mb - 0.00 in0.0 mm 0.00 in0.0 mm
12:30 PM 45.0°F7.2°C 43.3°F6.3°C 94% 3.2 mph SW5.1 kmh SW 6.0 mph9.7 kmh 29.86 in1011.2 mb - 0.00 in0.0 mm 0.00 in0.0 mm
12:00 PM 43.8°F6.6°C 42.5°F5.8°C 95% 6.4 mph SW10.3 kmh SW 8.0 mph12.9 kmh 29.88 in1011.9 mb - 0.00 in0.0 mm 0.00 in0.0 mm
11:30 AM 43.9°F6.6°C 42.3°F5.7°C 94% 3.3 mph WSW5.3 kmh WSW 4.0 mph6.4 kmh 29.88 in1011.9 mb - 0.00 in0.0 mm 0.00 in0.0 mm
11:00 AM 43.7°F6.5°C 41.8°F5.4°C 93% 6.4 mph WSW10.3 kmh WSW 10.0 mph16.1 kmh 29.90 in1012.5 mb - 0.00 in0.0 mm 0.00 in0.0 mm
10:30 AM 42.9°F6.1°C 41.0°F5.0°C 93% 4.7 mph W7.6 kmh W 8.0 mph12.9 kmh 29.89 in1012.2 mb - 0.00 in0.0 mm 0.00 in0.0 mm
10:00 AM 42.3°F5.7°C 40.7°F4.8°C 94% 5.3 mph W8.5 kmh W 7.0 mph11.3 kmh 29.90 in1012.5 mb - 0.00 in0.0 mm 0.00 in0.0 mm
09:30 AM 42.6°F5.9°C 40.7°F4.8°C 93% 5.6 mph WSW9.0 kmh WSW 9.0 mph14.5 kmh 29.89 in1012.2 mb - 0.00 in0.0 mm 0.00 in0.0 mm
09:00 AM 41.8°F5.4°C 39.9°F4.4°C 93% 7.8 mph WSW12.6 kmh WSW 11.0 mph17.7 kmh 29.90 in1012.5 mb - 0.00 in0.0 mm 0.00 in0.0 mm
08:30 AM 41.9°F5.5°C 40.0°F4.4°C 93% 7.6 mph W12.2 kmh W 11.0 mph17.7 kmh 29.91 in1012.9 mb - 0.00 in0.0 mm 0.00 in0.0 mm
08:00 AM 42.5°F5.8°C 40.3°F4.6°C 92% 2.6 mph W4.2 kmh W 4.0 mph6.4 kmh 29.91 in1012.9 mb - 0.00 in0.0 mm 0.00 in0.0 mm
07:30 AM 42.2°F5.7°C 40.0°F4.4°C 92% 5.4 mph W8.7 kmh W 7.0 mph11.3 kmh 29.90 in1012.5 mb - 0.00 in0.0 mm 0.00 in0.0 mm
07:00 AM 41.8°F5.4°C 39.9°F4.4°C 93% 3.4 mph W5.5 kmh W 5.0 mph8.0 kmh 29.89 in1012.2 mb - 0.00 in0.0 mm 0.00 in0.0 mm
06:30 AM 41.4°F5.2°C 39.8°F4.3°C 94% 5.0 mph WSW8.0 kmh WSW 5.0 mph8.0 kmh 29.89 in1012.2 mb - 0.00 in0.0 mm 0.00 in0.0 mm
06:00 AM 41.4°F5.2°C 39.8°F4.3°C 94% 7.5 mph WSW12.1 kmh WSW 9.0 mph14.5 kmh 29.90 in1012.5 mb - 0.00 in0.0 mm 0.00 in0.0 mm
05:30 AM 40.4°F4.7°C 38.8°F3.8°C 94% 2.8 mph WSW4.5 kmh WSW 4.0 mph6.4 kmh 29.91 in1012.9 mb - 0.00 in0.0 mm 0.00 in0.0 mm
05:00 AM 40.6°F4.8°C 38.7°F3.7°C 93% 0.5 mph WSW0.8 kmh WSW 2.0 mph3.2 kmh 29.91 in1012.9 mb - 0.00 in0.0 mm 0.00 in0.0 mm
04:30 AM 40.8°F4.9°C 38.7°F3.7°C 92% 0.7 mph WSW1.1 kmh WSW -- 29.90 in1012.5 mb - 0.00 in0.0 mm 0.00 in0.0 mm
04:00 AM 41.3°F5.2°C 39.2°F4.0°C 92% 4.0 mph WSW6.4 kmh WSW 5.0 mph8.0 kmh 29.91 in1012.9 mb - 0.00 in0.0 mm 0.00 in0.0 mm
03:30 AM 41.5°F5.3°C 39.4°F4.1°C 92% 5.7 mph WSW9.2 kmh WSW 10.0 mph16.1 kmh 29.92 in1013.2 mb - 0.00 in0.0 mm 0.00 in0.0 mm
03:00 AM 40.5°F4.7°C 38.6°F3.7°C 93% 4.2 mph W6.8 kmh W 8.0 mph12.9 kmh 29.92 in1013.2 mb - 0.00 in0.0 mm 0.00 in0.0 mm
02:30 AM 40.6°F4.8°C 38.2°F3.4°C 91% 5.0 mph SW8.0 kmh SW 7.0 mph11.3 kmh 29.92 in1013.2 mb - 0.00 in0.0 mm 0.00 in0.0 mm
02:00 AM 40.9°F4.9°C 38.2°F3.4°C 90% 5.7 mph SW9.2 kmh SW 10.0 mph16.1 kmh 29.93 in1013.5 mb - 0.00 in0.0 mm 0.00 in0.0 mm
01:30 AM 41.3°F5.2°C 38.3°F3.5°C 89% 6.2 mph SW10.0 kmh SW 8.0 mph12.9 kmh 29.93 in1013.5 mb - 0.00 in0.0 mm 0.00 in0.0 mm
01:00 AM 41.4°F5.2°C 37.8°F3.2°C 87% 6.8 mph WSW10.9 kmh WSW 8.0 mph12.9 kmh 29.93 in1013.5 mb - 0.00 in0.0 mm 0.00 in0.0 mm
12:30 AM 41.2°F5.1°C 37.3°F2.9°C 86% 5.6 mph WSW9.0 kmh WSW 8.0 mph12.9 kmh 29.93 in1013.5 mb - 0.00 in0.0 mm 0.00 in0.0 mm
12:00 AM 41.2°F5.1°C 37.3°F2.9°C 86% 8.5 mph SW13.7 kmh SW 13.0 mph20.9 kmh 29.93 in1013.5 mb - 0.00 in0.0 mm 0.00 in0.0 mm